sensor_id;sensor_type;location;lat;lon;timestamp;P1;durP1;ratioP1;P2;durP2;ratioP2
21630;SDS011;10977;46.802;11.952;2024-02-15T00:01:38;8.98;;;5.63;;
21630;SDS011;10977;46.802;11.952;2024-02-15T00:04:04;12.57;;;5.82;;
21630;SDS011;10977;46.802;11.952;2024-02-15T00:06:30;9.50;;;5.68;;
21630;SDS011;10977;46.802;11.952;2024-02-15T00:08:56;7.95;;;5.10;;
21630;SDS011;10977;46.802;11.952;2024-02-15T00:11:21;13.65;;;6.03;;
21630;SDS011;10977;46.802;11.952;2024-02-15T00:13:47;13.43;;;6.38;;
21630;SDS011;10977;46.802;11.952;2024-02-15T00:16:13;10.65;;;6.80;;
21630;SDS011;10977;46.802;11.952;2024-02-15T00:18:39;8.50;;;5.50;;
21630;SDS011;10977;46.802;11.952;2024-02-15T00:21:05;11.93;;;6.13;;
21630;SDS011;10977;46.802;11.952;2024-02-15T00:23:30;11.55;;;6.80;;
21630;SDS011;10977;46.802;11.952;2024-02-15T00:25:57;12.43;;;6.05;;
21630;SDS011;10977;46.802;11.952;2024-02-15T00:28:22;10.48;;;6.13;;
21630;SDS011;10977;46.802;11.952;2024-02-15T00:30:49;12.57;;;6.90;;
21630;SDS011;10977;46.802;11.952;2024-02-15T00:33:14;10.52;;;6.97;;
21630;SDS011;10977;46.802;11.952;2024-02-15T00:35:40;10.02;;;6.70;;
21630;SDS011;10977;46.802;11.952;2024-02-15T00:38:05;10.10;;;6.93;;
21630;SDS011;10977;46.802;11.952;2024-02-15T00:40:32;12.63;;;6.00;;
21630;SDS011;10977;46.802;11.952;2024-02-15T00:42:57;9.05;;;5.82;;
21630;SDS011;10977;46.802;11.952;2024-02-15T00:45:22;13.20;;;6.30;;
21630;SDS011;10977;46.802;11.952;2024-02-15T00:47:48;9.98;;;6.22;;
21630;SDS011;10977;46.802;11.952;2024-02-15T00:50:13;10.45;;;6.07;;
21630;SDS011;10977;46.802;11.952;2024-02-15T00:52:39;13.15;;;6.53;;
21630;SDS011;10977;46.802;11.952;2024-02-15T00:55:04;17.17;;;6.10;;
21630;SDS011;10977;46.802;11.952;2024-02-15T00:57:29;13.30;;;5.88;;
21630;SDS011;10977;46.802;11.952;2024-02-15T00:59:55;12.75;;;6.28;;
21630;SDS011;10977;46.802;11.952;2024-02-15T01:02:20;12.95;;;5.80;;
21630;SDS011;10977;46.802;11.952;2024-02-15T01:04:46;10.30;;;5.40;;
21630;SDS011;10977;46.802;11.952;2024-02-15T01:07:12;8.00;;;5.55;;
21630;SDS011;10977;46.802;11.952;2024-02-15T01:09:38;7.80;;;5.25;;
21630;SDS011;10977;46.802;11.952;2024-02-15T01:12:03;9.30;;;5.45;;
21630;SDS011;10977;46.802;11.952;2024-02-15T01:14:30;11.63;;;5.70;;
21630;SDS011;10977;46.802;11.952;2024-02-15T01:16:55;11.63;;;6.30;;
21630;SDS011;10977;46.802;11.952;2024-02-15T01:19:21;11.57;;;5.60;;
21630;SDS011;10977;46.802;11.952;2024-02-15T01:21:47;11.60;;;5.60;;
21630;SDS011;10977;46.802;11.952;2024-02-15T01:24:12;10.43;;;5.63;;
21630;SDS011;10977;46.802;11.952;2024-02-15T01:26:38;13.70;;;5.72;;
21630;SDS011;10977;46.802;11.952;2024-02-15T01:29:03;10.35;;;5.50;;
21630;SDS011;10977;46.802;11.952;2024-02-15T01:31:28;8.98;;;5.72;;
21630;SDS011;10977;46.802;11.952;2024-02-15T01:33:54;10.55;;;5.47;;
21630;SDS011;10977;46.802;11.952;2024-02-15T01:36:19;9.10;;;5.80;;
21630;SDS011;10977;46.802;11.952;2024-02-15T01:38:45;8.70;;;5.78;;
21630;SDS011;10977;46.802;11.952;2024-02-15T01:41:11;14.05;;;5.65;;
21630;SDS011;10977;46.802;11.952;2024-02-15T01:43:36;11.35;;;6.32;;
21630;SDS011;10977;46.802;11.952;2024-02-15T01:46:11;8.98;;;5.00;;
21630;SDS011;10977;46.802;11.952;2024-02-15T01:48:37;6.55;;;4.63;;
21630;SDS011;10977;46.802;11.952;2024-02-15T01:51:04;9.98;;;5.13;;
21630;SDS011;10977;46.802;11.952;2024-02-15T01:53:31;7.50;;;5.30;;
21630;SDS011;10977;46.802;11.952;2024-02-15T01:55:57;9.00;;;5.10;;
21630;SDS011;10977;46.802;11.952;2024-02-15T01:58:24;7.85;;;5.50;;
21630;SDS011;10977;46.802;11.952;2024-02-15T02:00:50;10.68;;;5.68;;
21630;SDS011;10977;46.802;11.952;2024-02-15T02:03:17;8.20;;;5.32;;
21630;SDS011;10977;46.802;11.952;2024-02-15T02:05:46;10.73;;;5.93;;
21630;SDS011;10977;46.802;11.952;2024-02-15T02:08:12;9.15;;;5.72;;
21630;SDS011;10977;46.802;11.952;2024-02-15T02:10:38;11.23;;;5.95;;
21630;SDS011;10977;46.802;11.952;2024-02-15T02:13:04;12.20;;;5.57;;
21630;SDS011;10977;46.802;11.952;2024-02-15T02:15:33;8.10;;;5.78;;
21630;SDS011;10977;46.802;11.952;2024-02-15T02:18:02;8.30;;;5.60;;
21630;SDS011;10977;46.802;11.952;2024-02-15T02:20:33;7.97;;;5.45;;
21630;SDS011;10977;46.802;11.952;2024-02-15T02:23:09;10.80;;;5.25;;
21630;SDS011;10977;46.802;11.952;2024-02-15T02:25:39;9.52;;;5.07;;
21630;SDS011;10977;46.802;11.952;2024-02-15T02:28:05;14.70;;;6.13;;
21630;SDS011;10977;46.802;11.952;2024-02-15T02:30:32;7.53;;;4.50;;
21630;SDS011;10977;46.802;11.952;2024-02-15T02:32:57;9.43;;;5.07;;
21630;SDS011;10977;46.802;11.952;2024-02-15T02:35:24;11.43;;;5.45;;
21630;SDS011;10977;46.802;11.952;2024-02-15T02:37:50;14.05;;;6.00;;
21630;SDS011;10977;46.802;11.952;2024-02-15T02:40:18;10.23;;;5.13;;
21630;SDS011;10977;46.802;11.952;2024-02-15T02:42:53;7.25;;;5.00;;
21630;SDS011;10977;46.802;11.952;2024-02-15T02:45:24;15.55;;;5.07;;
21630;SDS011;10977;46.802;11.952;2024-02-15T02:47:50;8.32;;;4.80;;
21630;SDS011;10977;46.802;11.952;2024-02-15T02:50:16;8.07;;;4.82;;
21630;SDS011;10977;46.802;11.952;2024-02-15T02:52:43;7.63;;;4.40;;
21630;SDS011;10977;46.802;11.952;2024-02-15T02:55:09;7.20;;;4.25;;
21630;SDS011;10977;46.802;11.952;2024-02-15T02:57:35;8.15;;;4.63;;
21630;SDS011;10977;46.802;11.952;2024-02-15T03:00:04;6.68;;;4.63;;
21630;SDS011;10977;46.802;11.952;2024-02-15T03:02:33;8.02;;;4.80;;
21630;SDS011;10977;46.802;11.952;2024-02-15T03:05:03;9.95;;;5.28;;
21630;SDS011;10977;46.802;11.952;2024-02-15T03:07:31;11.65;;;5.03;;
21630;SDS011;10977;46.802;11.952;2024-02-15T03:09:57;10.60;;;5.40;;
21630;SDS011;10977;46.802;11.952;2024-02-15T03:12:23;9.27;;;5.15;;
21630;SDS011;10977;46.802;11.952;2024-02-15T03:14:48;10.02;;;5.53;;
21630;SDS011;10977;46.802;11.952;2024-02-15T03:17:14;9.15;;;5.13;;
21630;SDS011;10977;46.802;11.952;2024-02-15T03:19:39;9.43;;;4.38;;
21630;SDS011;10977;46.802;11.952;2024-02-15T03:22:05;6.18;;;4.28;;
21630;SDS011;10977;46.802;11.952;2024-02-15T03:24:31;11.65;;;5.32;;
21630;SDS011;10977;46.802;11.952;2024-02-15T03:26:56;13.80;;;7.03;;
21630;SDS011;10977;46.802;11.952;2024-02-15T03:29:22;16.13;;;8.43;;
21630;SDS011;10977;46.802;11.952;2024-02-15T03:31:47;17.30;;;8.43;;
21630;SDS011;10977;46.802;11.952;2024-02-15T03:34:14;11.07;;;6.47;;
21630;SDS011;10977;46.802;11.952;2024-02-15T03:36:40;12.10;;;6.10;;
21630;SDS011;10977;46.802;11.952;2024-02-15T03:39:06;11.52;;;5.95;;
21630;SDS011;10977;46.802;11.952;2024-02-15T03:41:33;10.68;;;5.30;;
21630;SDS011;10977;46.802;11.952;2024-02-15T03:43:58;9.50;;;5.40;;
21630;SDS011;10977;46.802;11.952;2024-02-15T03:46:25;7.55;;;5.10;;
21630;SDS011;10977;46.802;11.952;2024-02-15T03:48:50;9.20;;;5.03;;
21630;SDS011;10977;46.802;11.952;2024-02-15T03:51:16;9.57;;;5.38;;
21630;SDS011;10977;46.802;11.952;2024-02-15T03:53:48;6.03;;;4.40;;
21630;SDS011;10977;46.802;11.952;2024-02-15T03:56:13;7.95;;;4.60;;
21630;SDS011;10977;46.802;11.952;2024-02-15T03:58:39;8.25;;;4.82;;
21630;SDS011;10977;46.802;11.952;2024-02-15T04:01:04;9.73;;;4.93;;
21630;SDS011;10977;46.802;11.952;2024-02-15T04:03:31;7.13;;;4.80;;
21630;SDS011;10977;46.802;11.952;2024-02-15T04:05:59;10.48;;;5.10;;
21630;SDS011;10977;46.802;11.952;2024-02-15T04:08:25;7.03;;;4.82;;
21630;SDS011;10977;46.802;11.952;2024-02-15T04:10:51;7.78;;;5.30;;
21630;SDS011;10977;46.802;11.952;2024-02-15T04:13:16;10.15;;;5.22;;
21630;SDS011;10977;46.802;11.952;2024-02-15T04:15:41;10.32;;;5.28;;
21630;SDS011;10977;46.802;11.952;2024-02-15T04:18:08;10.07;;;5.30;;
21630;SDS011;10977;46.802;11.952;2024-02-15T04:20:37;10.25;;;5.15;;
21630;SDS011;10977;46.802;11.952;2024-02-15T04:23:02;9.65;;;4.75;;
21630;SDS011;10977;46.802;11.952;2024-02-15T04:25:29;7.32;;;4.70;;
21630;SDS011;10977;46.802;11.952;2024-02-15T04:27:56;11.57;;;5.47;;
21630;SDS011;10977;46.802;11.952;2024-02-15T04:30:22;8.50;;;5.68;;
21630;SDS011;10977;46.802;11.952;2024-02-15T04:32:48;8.57;;;5.50;;
21630;SDS011;10977;46.802;11.952;2024-02-15T04:35:14;9.18;;;6.18;;
21630;SDS011;10977;46.802;11.952;2024-02-15T04:37:39;10.50;;;7.32;;
21630;SDS011;10977;46.802;11.952;2024-02-15T04:40:05;20.90;;;12.38;;
21630;SDS011;10977;46.802;11.952;2024-02-15T04:42:38;24.15;;;14.02;;
21630;SDS011;10977;46.802;11.952;2024-02-15T04:45:04;13.88;;;9.60;;
21630;SDS011;10977;46.802;11.952;2024-02-15T04:47:33;11.10;;;7.05;;
21630;SDS011;10977;46.802;11.952;2024-02-15T04:49:59;9.10;;;6.63;;
21630;SDS011;10977;46.802;11.952;2024-02-15T04:52:24;12.90;;;6.50;;
21630;SDS011;10977;46.802;11.952;2024-02-15T04:54:50;10.95;;;6.10;;
21630;SDS011;10977;46.802;11.952;2024-02-15T04:57:19;13.95;;;5.95;;
21630;SDS011;10977;46.802;11.952;2024-02-15T04:59:45;8.73;;;5.28;;
21630;SDS011;10977;46.802;11.952;2024-02-15T05:02:12;8.70;;;4.78;;
21630;SDS011;10977;46.802;11.952;2024-02-15T05:04:38;12.07;;;5.90;;
21630;SDS011;10977;46.802;11.952;2024-02-15T05:07:07;9.80;;;5.13;;
21630;SDS011;10977;46.802;11.952;2024-02-15T05:09:33;11.40;;;5.68;;
21630;SDS011;10977;46.802;11.952;2024-02-15T05:11:59;11.98;;;5.05;;
21630;SDS011;10977;46.802;11.952;2024-02-15T05:14:27;9.88;;;4.53;;
21630;SDS011;10977;46.802;11.952;2024-02-15T05:16:53;13.02;;;4.82;;
21630;SDS011;10977;46.802;11.952;2024-02-15T05:19:18;16.40;;;6.47;;
21630;SDS011;10977;46.802;11.952;2024-02-15T05:21:44;12.13;;;5.53;;
21630;SDS011;10977;46.802;11.952;2024-02-15T05:24:14;12.35;;;5.60;;
21630;SDS011;10977;46.802;11.952;2024-02-15T05:26:40;6.45;;;4.10;;
21630;SDS011;10977;46.802;11.952;2024-02-15T05:29:12;13.55;;;8.77;;
21630;SDS011;10977;46.802;11.952;2024-02-15T05:31:38;10.85;;;7.35;;
21630;SDS011;10977;46.802;11.952;2024-02-15T05:34:05;15.30;;;5.93;;
21630;SDS011;10977;46.802;11.952;2024-02-15T05:36:33;14.98;;;6.07;;
21630;SDS011;10977;46.802;11.952;2024-02-15T05:38:59;8.13;;;5.20;;
21630;SDS011;10977;46.802;11.952;2024-02-15T05:41:24;8.70;;;4.72;;
21630;SDS011;10977;46.802;11.952;2024-02-15T05:43:50;11.13;;;5.60;;
21630;SDS011;10977;46.802;11.952;2024-02-15T05:46:18;10.20;;;5.75;;
21630;SDS011;10977;46.802;11.952;2024-02-15T05:48:43;13.38;;;6.35;;
21630;SDS011;10977;46.802;11.952;2024-02-15T05:51:09;12.18;;;5.50;;
21630;SDS011;10977;46.802;11.952;2024-02-15T05:53:35;14.77;;;5.10;;
21630;SDS011;10977;46.802;11.952;2024-02-15T05:56:04;12.82;;;5.75;;
21630;SDS011;10977;46.802;11.952;2024-02-15T05:58:35;15.75;;;6.43;;
21630;SDS011;10977;46.802;11.952;2024-02-15T06:01:01;12.23;;;6.35;;
21630;SDS011;10977;46.802;11.952;2024-02-15T06:03:30;20.23;;;6.60;;
21630;SDS011;10977;46.802;11.952;2024-02-15T06:05:58;10.43;;;6.30;;
21630;SDS011;10977;46.802;11.952;2024-02-15T06:08:28;8.73;;;5.43;;
21630;SDS011;10977;46.802;11.952;2024-02-15T06:10:56;11.05;;;5.47;;
21630;SDS011;10977;46.802;11.952;2024-02-15T06:13:22;11.50;;;5.35;;
21630;SDS011;10977;46.802;11.952;2024-02-15T06:15:49;14.48;;;6.32;;
21630;SDS011;10977;46.802;11.952;2024-02-15T06:18:21;11.30;;;5.70;;
21630;SDS011;10977;46.802;11.952;2024-02-15T06:20:49;15.63;;;7.35;;
21630;SDS011;10977;46.802;11.952;2024-02-15T06:23:19;13.45;;;7.03;;
21630;SDS011;10977;46.802;11.952;2024-02-15T06:25:48;11.93;;;6.45;;
21630;SDS011;10977;46.802;11.952;2024-02-15T06:28:16;16.77;;;6.63;;
21630;SDS011;10977;46.802;11.952;2024-02-15T06:31:04;16.40;;;7.15;;
21630;SDS011;10977;46.802;11.952;2024-02-15T06:33:48;18.85;;;6.43;;
21630;SDS011;10977;46.802;11.952;2024-02-15T06:36:32;13.35;;;5.78;;
21630;SDS011;10977;46.802;11.952;2024-02-15T06:39:16;12.80;;;5.90;;
21630;SDS011;10977;46.802;11.952;2024-02-15T06:42:00;15.40;;;7.38;;
21630;SDS011;10977;46.802;11.952;2024-02-15T06:44:27;13.25;;;7.03;;
21630;SDS011;10977;46.802;11.952;2024-02-15T06:46:52;20.50;;;9.18;;
21630;SDS011;10977;46.802;11.952;2024-02-15T06:49:18;16.40;;;9.18;;
21630;SDS011;10977;46.802;11.952;2024-02-15T06:51:43;18.85;;;9.20;;
21630;SDS011;10977;46.802;11.952;2024-02-15T06:54:09;17.10;;;8.68;;
21630;SDS011;10977;46.802;11.952;2024-02-15T06:56:39;18.55;;;8.48;;
21630;SDS011;10977;46.802;11.952;2024-02-15T06:59:05;14.88;;;8.10;;
21630;SDS011;10977;46.802;11.952;2024-02-15T07:01:30;17.25;;;7.75;;
21630;SDS011;10977;46.802;11.952;2024-02-15T07:03:59;14.07;;;7.38;;
21630;SDS011;10977;46.802;11.952;2024-02-15T07:06:24;13.70;;;7.97;;
21630;SDS011;10977;46.802;11.952;2024-02-15T07:08:52;17.02;;;9.32;;
21630;SDS011;10977;46.802;11.952;2024-02-15T07:11:19;20.63;;;11.75;;
21630;SDS011;10977;46.802;11.952;2024-02-15T07:13:44;16.85;;;9.90;;
21630;SDS011;10977;46.802;11.952;2024-02-15T07:16:10;31.13;;;14.18;;
21630;SDS011;10977;46.802;11.952;2024-02-15T07:18:36;23.70;;;11.65;;
21630;SDS011;10977;46.802;11.952;2024-02-15T07:21:02;14.75;;;9.27;;
21630;SDS011;10977;46.802;11.952;2024-02-15T07:23:33;29.42;;;14.90;;
21630;SDS011;10977;46.802;11.952;2024-02-15T07:25:59;33.17;;;17.23;;
21630;SDS011;10977;46.802;11.952;2024-02-15T07:28:24;26.80;;;14.75;;
21630;SDS011;10977;46.802;11.952;2024-02-15T07:30:54;24.70;;;12.98;;
21630;SDS011;10977;46.802;11.952;2024-02-15T07:33:20;23.67;;;12.43;;
21630;SDS011;10977;46.802;11.952;2024-02-15T07:35:47;18.10;;;10.65;;
21630;SDS011;10977;46.802;11.952;2024-02-15T07:38:16;16.92;;;10.10;;
21630;SDS011;10977;46.802;11.952;2024-02-15T07:40:42;16.73;;;9.13;;
21630;SDS011;10977;46.802;11.952;2024-02-15T07:43:07;12.00;;;7.15;;
21630;SDS011;10977;46.802;11.952;2024-02-15T07:45:33;9.63;;;6.68;;
21630;SDS011;10977;46.802;11.952;2024-02-15T07:48:01;7.30;;;4.95;;
21630;SDS011;10977;46.802;11.952;2024-02-15T07:50:29;10.05;;;4.63;;
21630;SDS011;10977;46.802;11.952;2024-02-15T07:52:55;8.68;;;4.75;;
21630;SDS011;10977;46.802;11.952;2024-02-15T07:55:21;7.85;;;4.60;;
21630;SDS011;10977;46.802;11.952;2024-02-15T07:57:46;12.93;;;4.72;;
21630;SDS011;10977;46.802;11.952;2024-02-15T08:00:13;10.85;;;4.80;;
21630;SDS011;10977;46.802;11.952;2024-02-15T08:02:44;11.88;;;5.03;;
21630;SDS011;10977;46.802;11.952;2024-02-15T08:05:09;8.30;;;4.75;;
21630;SDS011;10977;46.802;11.952;2024-02-15T08:07:43;9.48;;;4.72;;
21630;SDS011;10977;46.802;11.952;2024-02-15T08:10:10;11.13;;;5.30;;
21630;SDS011;10977;46.802;11.952;2024-02-15T08:12:45;9.18;;;4.85;;
21630;SDS011;10977;46.802;11.952;2024-02-15T08:15:14;12.57;;;5.15;;
21630;SDS011;10977;46.802;11.952;2024-02-15T08:17:44;8.50;;;4.80;;
21630;SDS011;10977;46.802;11.952;2024-02-15T08:20:13;6.15;;;4.32;;
21630;SDS011;10977;46.802;11.952;2024-02-15T08:22:40;8.15;;;4.07;;
21630;SDS011;10977;46.802;11.952;2024-02-15T08:25:09;6.63;;;4.40;;
21630;SDS011;10977;46.802;11.952;2024-02-15T08:27:37;10.40;;;4.32;;
21630;SDS011;10977;46.802;11.952;2024-02-15T08:30:10;13.35;;;4.28;;
21630;SDS011;10977;46.802;11.952;2024-02-15T08:32:40;6.13;;;3.90;;
21630;SDS011;10977;46.802;11.952;2024-02-15T08:35:10;10.35;;;4.10;;
21630;SDS011;10977;46.802;11.952;2024-02-15T08:37:37;7.35;;;4.20;;
21630;SDS011;10977;46.802;11.952;2024-02-15T08:40:04;7.43;;;3.90;;
21630;SDS011;10977;46.802;11.952;2024-02-15T08:42:43;6.93;;;4.68;;
21630;SDS011;10977;46.802;11.952;2024-02-15T08:45:09;10.57;;;4.30;;
21630;SDS011;10977;46.802;11.952;2024-02-15T08:47:36;9.27;;;4.07;;
21630;SDS011;10977;46.802;11.952;2024-02-15T08:50:05;5.90;;;3.40;;
21630;SDS011;10977;46.802;11.952;2024-02-15T08:52:34;9.90;;;4.10;;
21630;SDS011;10977;46.802;11.952;2024-02-15T08:55:03;8.38;;;3.60;;
21630;SDS011;10977;46.802;11.952;2024-02-15T08:57:31;5.13;;;3.38;;
21630;SDS011;10977;46.802;11.952;2024-02-15T08:59:57;4.10;;;3.45;;
21630;SDS011;10977;46.802;11.952;2024-02-15T09:02:23;11.40;;;4.28;;
21630;SDS011;10977;46.802;11.952;2024-02-15T09:04:48;7.25;;;3.47;;
21630;SDS011;10977;46.802;11.952;2024-02-15T09:07:14;6.78;;;3.90;;
21630;SDS011;10977;46.802;11.952;2024-02-15T09:09:39;6.97;;;3.75;;
21630;SDS011;10977;46.802;11.952;2024-02-15T09:12:05;6.57;;;4.15;;
21630;SDS011;10977;46.802;11.952;2024-02-15T09:14:34;6.50;;;3.88;;
21630;SDS011;10977;46.802;11.952;2024-02-15T09:17:04;6.35;;;4.15;;
21630;SDS011;10977;46.802;11.952;2024-02-15T09:19:33;5.57;;;3.95;;
21630;SDS011;10977;46.802;11.952;2024-02-15T09:21:59;4.80;;;3.80;;
21630;SDS011;10977;46.802;11.952;2024-02-15T09:24:25;5.88;;;3.83;;
21630;SDS011;10977;46.802;11.952;2024-02-15T09:26:50;7.63;;;4.28;;
21630;SDS011;10977;46.802;11.952;2024-02-15T09:29:17;7.70;;;4.57;;
21630;SDS011;10977;46.802;11.952;2024-02-15T09:31:45;9.82;;;3.83;;
21630;SDS011;10977;46.802;11.952;2024-02-15T09:34:12;12.88;;;4.50;;
21630;SDS011;10977;46.802;11.952;2024-02-15T09:36:38;6.95;;;4.40;;
21630;SDS011;10977;46.802;11.952;2024-02-15T09:39:04;5.22;;;4.20;;
21630;SDS011;10977;46.802;11.952;2024-02-15T09:41:29;9.20;;;4.57;;
21630;SDS011;10977;46.802;11.952;2024-02-15T09:43:55;7.00;;;5.03;;
21630;SDS011;10977;46.802;11.952;2024-02-15T09:46:21;5.15;;;4.10;;
21630;SDS011;10977;46.802;11.952;2024-02-15T09:48:47;5.15;;;4.03;;
21630;SDS011;10977;46.802;11.952;2024-02-15T09:51:16;6.80;;;4.65;;
21630;SDS011;10977;46.802;11.952;2024-02-15T09:53:44;8.45;;;4.22;;
21630;SDS011;10977;46.802;11.952;2024-02-15T09:56:12;7.40;;;4.55;;
21630;SDS011;10977;46.802;11.952;2024-02-15T09:58:40;6.63;;;3.90;;
21630;SDS011;10977;46.802;11.952;2024-02-15T10:01:06;7.85;;;4.30;;
21630;SDS011;10977;46.802;11.952;2024-02-15T10:03:36;6.82;;;3.90;;
21630;SDS011;10977;46.802;11.952;2024-02-15T10:06:03;4.30;;;3.83;;
21630;SDS011;10977;46.802;11.952;2024-02-15T10:08:29;7.78;;;4.57;;
21630;SDS011;10977;46.802;11.952;2024-02-15T10:11:16;6.90;;;4.00;;
21630;SDS011;10977;46.802;11.952;2024-02-15T10:13:41;5.50;;;4.10;;
21630;SDS011;10977;46.802;11.952;2024-02-15T10:16:19;5.70;;;3.65;;
21630;SDS011;10977;46.802;11.952;2024-02-15T10:18:50;8.68;;;3.75;;
21630;SDS011;10977;46.802;11.952;2024-02-15T10:21:23;5.65;;;3.53;;
21630;SDS011;10977;46.802;11.952;2024-02-15T10:26:45;14.35;;;3.90;;
21630;SDS011;10977;46.802;11.952;2024-02-15T10:29:13;7.10;;;4.32;;
21630;SDS011;10977;46.802;11.952;2024-02-15T10:31:51;6.43;;;5.50;;
21630;SDS011;10977;46.802;11.952;2024-02-15T10:34:18;7.32;;;4.97;;
21630;SDS011;10977;46.802;11.952;2024-02-15T10:36:45;4.78;;;3.80;;
21630;SDS011;10977;46.802;11.952;2024-02-15T10:39:14;6.05;;;3.33;;
21630;SDS011;10977;46.802;11.952;2024-02-15T10:41:52;7.75;;;3.63;;
21630;SDS011;10977;46.802;11.952;2024-02-15T10:44:22;4.53;;;3.65;;
21630;SDS011;10977;46.802;11.952;2024-02-15T10:46:50;3.97;;;3.47;;
21630;SDS011;10977;46.802;11.952;2024-02-15T10:49:22;4.57;;;3.08;;
21630;SDS011;10977;46.802;11.952;2024-02-15T10:51:50;6.70;;;3.00;;
21630;SDS011;10977;46.802;11.952;2024-02-15T10:54:24;3.45;;;3.00;;
21630;SDS011;10977;46.802;11.952;2024-02-15T10:56:53;4.57;;;2.78;;
21630;SDS011;10977;46.802;11.952;2024-02-15T10:59:22;5.30;;;2.70;;
21630;SDS011;10977;46.802;11.952;2024-02-15T11:01:57;2.95;;;2.53;;
21630;SDS011;10977;46.802;11.952;2024-02-15T11:04:25;2.90;;;2.55;;
21630;SDS011;10977;46.802;11.952;2024-02-15T11:06:57;5.22;;;2.50;;
21630;SDS011;10977;46.802;11.952;2024-02-15T11:09:23;2.95;;;2.42;;
21630;SDS011;10977;46.802;11.952;2024-02-15T11:11:52;5.07;;;2.63;;
21630;SDS011;10977;46.802;11.952;2024-02-15T11:14:30;2.72;;;2.53;;
21630;SDS011;10977;46.802;11.952;2024-02-15T11:16:57;3.22;;;2.67;;
21630;SDS011;10977;46.802;11.952;2024-02-15T11:22:01;4.72;;;2.47;;
21630;SDS011;10977;46.802;11.952;2024-02-15T11:24:31;2.75;;;2.25;;
21630;SDS011;10977;46.802;11.952;2024-02-15T11:26:58;5.35;;;2.30;;
21630;SDS011;10977;46.802;11.952;2024-02-15T11:35:14;5.07;;;2.00;;
21630;SDS011;10977;46.802;11.952;2024-02-15T11:40:17;6.78;;;2.10;;
21630;SDS011;10977;46.802;11.952;2024-02-15T11:42:47;4.28;;;1.98;;
21630;SDS011;10977;46.802;11.952;2024-02-15T11:45:18;5.70;;;2.00;;
21630;SDS011;10977;46.802;11.952;2024-02-15T11:47:44;3.03;;;2.13;;
21630;SDS011;10977;46.802;11.952;2024-02-15T11:50:14;2.40;;;2.08;;
21630;SDS011;10977;46.802;11.952;2024-02-15T11:52:43;2.60;;;1.88;;
21630;SDS011;10977;46.802;11.952;2024-02-15T11:55:14;3.80;;;1.95;;
21630;SDS011;10977;46.802;11.952;2024-02-15T14:40:16;6.80;;;1.65;;
21630;SDS011;10977;46.802;11.952;2024-02-15T14:43:30;4.88;;;1.98;;
21630;SDS011;10977;46.802;11.952;2024-02-15T14:49:15;5.53;;;2.28;;
21630;SDS011;10977;46.802;11.952;2024-02-15T15:07:16;11.90;;;3.40;;
21630;SDS011;10977;46.802;11.952;2024-02-15T15:10:03;10.55;;;4.13;;
21630;SDS011;10977;46.802;11.952;2024-02-15T15:23:13;15.90;;;4.43;;
21630;SDS011;10977;46.802;11.952;2024-02-15T15:25:44;8.70;;;3.88;;
21630;SDS011;10977;46.802;11.952;2024-02-15T15:28:15;10.35;;;3.45;;
21630;SDS011;10977;46.802;11.952;2024-02-15T15:30:41;20.17;;;4.22;;
21630;SDS011;10977;46.802;11.952;2024-02-15T15:33:27;19.63;;;4.45;;
21630;SDS011;10977;46.802;11.952;2024-02-15T15:36:03;13.73;;;3.90;;
21630;SDS011;10977;46.802;11.952;2024-02-15T15:38:29;8.40;;;3.28;;
21630;SDS011;10977;46.802;11.952;2024-02-15T15:40:56;10.32;;;3.13;;
21630;SDS011;10977;46.802;11.952;2024-02-15T15:43:22;5.85;;;3.05;;
21630;SDS011;10977;46.802;11.952;2024-02-15T15:45:50;7.65;;;3.92;;
21630;SDS011;10977;46.802;11.952;2024-02-15T15:48:19;10.20;;;4.55;;
21630;SDS011;10977;46.802;11.952;2024-02-15T15:50:45;12.32;;;6.28;;
21630;SDS011;10977;46.802;11.952;2024-02-15T15:53:16;6.78;;;3.28;;
21630;SDS011;10977;46.802;11.952;2024-02-15T15:55:46;19.30;;;6.43;;
21630;SDS011;10977;46.802;11.952;2024-02-15T15:58:11;10.48;;;5.40;;
21630;SDS011;10977;46.802;11.952;2024-02-15T16:00:37;14.10;;;4.55;;
21630;SDS011;10977;46.802;11.952;2024-02-15T16:03:03;12.30;;;4.93;;
21630;SDS011;10977;46.802;11.952;2024-02-15T16:05:30;6.68;;;3.83;;
21630;SDS011;10977;46.802;11.952;2024-02-15T16:07:55;12.05;;;3.15;;
21630;SDS011;10977;46.802;11.952;2024-02-15T16:10:21;10.95;;;3.47;;
21630;SDS011;10977;46.802;11.952;2024-02-15T16:12:50;10.85;;;3.15;;
21630;SDS011;10977;46.802;11.952;2024-02-15T16:15:18;8.45;;;3.33;;
21630;SDS011;10977;46.802;11.952;2024-02-15T16:17:44;15.63;;;3.38;;
21630;SDS011;10977;46.802;11.952;2024-02-15T16:20:11;6.68;;;3.00;;
21630;SDS011;10977;46.802;11.952;2024-02-15T16:22:41;7.68;;;4.03;;
21630;SDS011;10977;46.802;11.952;2024-02-15T16:25:10;6.03;;;3.05;;
21630;SDS011;10977;46.802;11.952;2024-02-15T16:27:36;5.60;;;2.85;;
21630;SDS011;10977;46.802;11.952;2024-02-15T16:30:02;4.65;;;3.67;;
21630;SDS011;10977;46.802;11.952;2024-02-15T16:32:30;9.43;;;2.90;;
21630;SDS011;10977;46.802;11.952;2024-02-15T16:34:57;8.48;;;2.55;;
21630;SDS011;10977;46.802;11.952;2024-02-15T16:37:23;16.13;;;7.38;;
21630;SDS011;10977;46.802;11.952;2024-02-15T16:39:50;8.27;;;3.42;;
21630;SDS011;10977;46.802;11.952;2024-02-15T16:42:17;5.32;;;2.65;;
21630;SDS011;10977;46.802;11.952;2024-02-15T16:44:47;6.70;;;2.85;;
21630;SDS011;10977;46.802;11.952;2024-02-15T16:47:17;11.95;;;4.40;;
21630;SDS011;10977;46.802;11.952;2024-02-15T16:49:44;8.60;;;3.95;;
21630;SDS011;10977;46.802;11.952;2024-02-15T16:52:43;6.65;;;3.10;;
21630;SDS011;10977;46.802;11.952;2024-02-15T16:55:08;8.10;;;5.22;;
21630;SDS011;10977;46.802;11.952;2024-02-15T16:57:37;5.90;;;4.90;;
21630;SDS011;10977;46.802;11.952;2024-02-15T17:00:06;12.45;;;4.15;;
21630;SDS011;10977;46.802;11.952;2024-02-15T17:02:33;9.27;;;3.25;;
21630;SDS011;10977;46.802;11.952;2024-02-15T17:05:00;9.43;;;4.82;;
21630;SDS011;10977;46.802;11.952;2024-02-15T17:07:25;8.73;;;5.50;;
21630;SDS011;10977;46.802;11.952;2024-02-15T17:09:52;14.80;;;7.55;;
21630;SDS011;10977;46.802;11.952;2024-02-15T17:12:21;14.80;;;4.85;;
21630;SDS011;10977;46.802;11.952;2024-02-15T17:14:46;12.27;;;3.92;;
21630;SDS011;10977;46.802;11.952;2024-02-15T17:17:12;12.95;;;5.07;;
21630;SDS011;10977;46.802;11.952;2024-02-15T17:19:38;9.75;;;4.90;;
21630;SDS011;10977;46.802;11.952;2024-02-15T17:22:04;10.60;;;6.43;;
21630;SDS011;10977;46.802;11.952;2024-02-15T17:35:11;11.50;;;6.63;;
21630;SDS011;10977;46.802;11.952;2024-02-15T17:37:39;7.35;;;5.05;;
21630;SDS011;10977;46.802;11.952;2024-02-15T17:40:05;6.15;;;4.55;;
21630;SDS011;10977;46.802;11.952;2024-02-15T17:42:31;6.22;;;3.78;;
21630;SDS011;10977;46.802;11.952;2024-02-15T17:44:56;3.45;;;2.63;;
21630;SDS011;10977;46.802;11.952;2024-02-15T17:47:22;4.38;;;3.17;;
21630;SDS011;10977;46.802;11.952;2024-02-15T17:49:48;4.38;;;2.83;;
21630;SDS011;10977;46.802;11.952;2024-02-15T17:52:14;6.25;;;3.08;;
21630;SDS011;10977;46.802;11.952;2024-02-15T17:54:39;5.25;;;2.92;;
21630;SDS011;10977;46.802;11.952;2024-02-15T17:57:05;4.90;;;3.15;;
21630;SDS011;10977;46.802;11.952;2024-02-15T17:59:30;4.38;;;2.50;;
21630;SDS011;10977;46.802;11.952;2024-02-15T18:01:55;8.23;;;3.00;;
21630;SDS011;10977;46.802;11.952;2024-02-15T18:04:21;7.13;;;2.78;;
21630;SDS011;10977;46.802;11.952;2024-02-15T18:06:47;7.38;;;3.03;;
21630;SDS011;10977;46.802;11.952;2024-02-15T18:09:12;3.65;;;2.50;;